LOWWLGSK

Guest
Details From LOWW - Wien Schwechat
To LGSK - Skiathos Alexandros Papadiamantis
Flight Number -
Tags decoded
Created
Modified
Stats Distance 639 nm / 1,183 km
Max Altitude 0 ft / 0 m
Waypoints 7
Social Downloads 1
Likes 0
Share VATSIM

Download

Looking for another format? Having issues loading an existing format? Contact us
Advertisement - Login to hide

Notes

Requested: LOWW STEIN L610 TONDO UM749 TALAS UN132 ELPIS AGISA LGSK Unmatched points: L610 UM749

Route

LOWW STEIN TONDO TALAS UN132 ELPIS AGISA LGSK

ID Type Via Altitude Latitude Longitude Leg Dist Tot Dist Heading (true) Name
O LOWW APT - 0 ft / 0 m 48.11007˚ 16.56964˚ - 0 nm - Wien Schwechat
STEIN FIX - 0 ft / 0 m 47.42750˚ 16.59972˚ 41 nm 41 nm 178° / 178° -
TONDO FIX - 0 ft / 0 m 46.04731˚ 19.35593˚ 140 nm 181 nm 125° / 127° -
TALAS FIX - 0 ft / 0 m 41.07667˚ 21.91667˚ 318 nm 500 nm 159° / 160° -
ELPIS FIX UN132 (AWY-HI) 0 ft / 0 m 40.32611˚ 22.60306˚ 54 nm 554 nm 145° / 145° -
AGISA FIX - 0 ft / 0 m 39.73333˚ 23.35000˚ 49 nm 604 nm 136° / 136° -
O LGSK APT - 0 ft / 0 m 39.17710˚ 23.50368˚ 34 nm 638 nm 168° / 168° Skiathos Alexandros Papadiamantis

Altitude Profile

Advertisement - Login to hide

Weather


0- 5 10 15 20 25 30 35+ Temperature / ° C

Clouds and Precipitation
Forecast for 2017-12-18 12:00 UTC. Updated 10 minutes ago

Ground ~20,000 ft ~40,000 ft Winds

LOWW

Details ICAO LOWW (VIE)
Name Wien Schwechat
Region Austria
Timezone Europe/Vienna (UTC+1.0)
Stats Elevation 600 ft / 183 m (AMSL)
Location 48.110068° 16.569637°
Runways 2
Magnetic Variation 4.258° E

METAR

LOWW 180920Z 33009KT 9999 FEW030 01/M04 Q1024 NOSIG

Decode

TAF

TAF LOWW 180515Z 1806/1912 32008KT 9999 FEW030 TX02/1812Z TNM05/1904Z TEMPO 1806/1816 BKN040

Decode

Departure Runways

ID Width Length Bearing (true) Bearing (mag) Surface Threshold Offset Overrun Length
11 148 ft / 45 m 11,457 ft / 3,492 m 115.99° 111.73° Asphalt 0 ft / 0 m 0 ft / 0 m
16 148 ft / 45 m 11,811 ft / 3,600 m 164.23° 159.97° Asphalt 0 ft / 0 m 33 ft / 10 m
29 148 ft / 45 m 11,457 ft / 3,492 m 296.03° 291.77° Asphalt 0 ft / 0 m 0 ft / 0 m
34 148 ft / 45 m 11,811 ft / 3,600 m 344.24° 339.98° Asphalt 0 ft / 0 m 0 ft / 0 m

LGSK

Details ICAO LGSK (JSI)
Name Skiathos Alexandros Papadiamantis
Region Greece
Timezone Europe/Athens (UTC+2.0)
Stats Elevation 54 ft / 16 m (AMSL)
Location 39.177100° 23.503677°
Runways 1
Magnetic Variation 4.554° E

METAR

LGSK 180750Z 36007KT 9999 FEW012 SCT025 10/04 Q1016

Decode

TAF

Not found

Destination Runways

ID Width Length Bearing (true) Bearing (mag) Surface Threshold Offset Overrun Length
02 98 ft / 30 m 5,535 ft / 1,687 m 18.96° 14.41° Asphalt 190 ft / 58 m 0 ft / 0 m
20 98 ft / 30 m 5,535 ft / 1,687 m 198.97° 194.42° Asphalt 0 ft / 0 m 242 ft / 74 m

Popular Alternatives